createdAt,value
2022-09-01T00:00:14.998Z,5.38
2022-09-01T00:02:44.141Z,9.60
2022-09-01T00:05:12.883Z,6.28
2022-09-01T00:07:41.130Z,5.97
2022-09-01T00:10:10.384Z,5.75
2022-09-01T00:12:39.256Z,6.95
2022-09-01T00:15:10.891Z,7.28
2022-09-01T00:17:38.736Z,4.82
2022-09-01T00:20:07.543Z,4.43
2022-09-01T00:22:35.422Z,7.53
2022-09-01T00:25:03.236Z,4.90
2022-09-01T00:27:31.218Z,5.80
2022-09-01T00:29:59.387Z,5.05
2022-09-01T00:32:29.027Z,5.13
2022-09-01T00:34:57.126Z,7.07
2022-09-01T00:37:24.976Z,7.85
2022-09-01T00:39:52.883Z,3.90
2022-09-01T00:42:20.830Z,5.20
2022-09-01T00:44:48.991Z,8.10
2022-09-01T00:47:17.045Z,7.60
2022-09-01T00:49:48.459Z,8.07
2022-09-01T00:52:20.368Z,9.10
2022-09-01T00:54:51.791Z,8.52
2022-09-01T00:57:19.677Z,8.32
2022-09-01T00:59:52.675Z,5.25
2022-09-01T01:02:20.651Z,6.65
2022-09-01T01:04:52.735Z,9.75
2022-09-01T01:07:22.943Z,6.00
2022-09-01T01:09:52.343Z,6.30
2022-09-01T01:12:21.581Z,6.90
2022-09-01T01:14:51.822Z,6.63
2022-09-01T01:17:22.660Z,7.25
2022-09-01T01:20:11.192Z,5.78
2022-09-01T01:23:05.601Z,6.47
2022-09-01T01:25:39.775Z,5.95
2022-09-01T01:28:12.012Z,4.82
2022-09-01T01:30:41.967Z,7.47
2022-09-01T01:33:10.083Z,9.05
2022-09-01T01:35:39.999Z,8.13
2022-09-01T01:38:08.728Z,7.82
2022-09-01T01:40:39.145Z,8.55
2022-09-01T01:43:08.780Z,9.80
2022-09-01T01:45:36.829Z,6.03
2022-09-01T01:48:10.882Z,6.82
2022-09-01T01:50:40.639Z,5.40
2022-09-01T01:53:10.889Z,5.57
2022-09-01T01:55:43.794Z,5.85
2022-09-01T01:58:12.516Z,9.48
2022-09-01T02:00:42.863Z,7.75
2022-09-01T02:03:12.770Z,7.70
2022-09-01T02:05:40.920Z,7.63
2022-09-01T02:08:10.874Z,7.68
2022-09-01T02:10:43.723Z,5.65
2022-09-01T02:13:16.470Z,6.78
2022-09-01T02:15:47.414Z,6.88
2022-09-01T02:23:18.134Z,6.85
2022-09-01T02:28:40.004Z,6.63
2022-09-01T02:31:08.973Z,7.65
2022-09-01T02:33:38.029Z,7.15
2022-09-01T02:36:12.764Z,5.63
2022-09-01T02:38:41.821Z,4.70
2022-09-01T02:41:12.063Z,6.40
2022-09-01T02:43:40.269Z,5.72
2022-09-01T02:46:08.463Z,7.07
2022-09-01T02:48:39.354Z,7.47
2022-09-01T02:51:11.403Z,9.55
2022-09-01T02:53:41.761Z,5.82
2022-09-01T02:56:14.189Z,5.10
2022-09-01T02:58:46.794Z,9.05
2022-09-01T03:01:21.097Z,9.88
2022-09-01T03:03:50.101Z,6.05
2022-09-01T03:06:21.055Z,6.05
2022-09-01T03:08:49.376Z,5.45
2022-09-01T03:11:19.101Z,6.72
2022-09-01T03:13:46.935Z,5.53
2022-09-01T03:16:14.832Z,9.18
2022-09-01T03:18:43.259Z,8.25
2022-09-01T03:21:15.036Z,8.88
2022-09-01T03:23:44.880Z,7.90
2022-09-01T03:26:13.727Z,8.23
2022-09-01T03:28:43.349Z,5.90
2022-09-01T03:31:11.389Z,10.07
2022-09-01T03:33:39.596Z,6.35
2022-09-01T03:36:19.119Z,7.93
2022-09-01T03:38:49.173Z,9.48
2022-09-01T03:41:21.591Z,6.43
2022-09-01T03:43:51.280Z,7.43
2022-09-01T03:46:22.413Z,6.55
2022-09-01T03:48:52.717Z,6.95
2022-09-01T03:51:22.926Z,7.13
2022-09-01T03:56:24.724Z,8.45
2022-09-01T03:58:54.827Z,6.85
2022-09-01T04:01:23.063Z,7.38
2022-09-01T04:03:52.239Z,5.95
2022-09-01T04:06:26.014Z,7.07
2022-09-01T04:09:02.751Z,9.45
2022-09-01T04:11:33.812Z,6.55
2022-09-01T04:14:03.442Z,6.95
2022-09-01T04:16:53.771Z,6.57
2022-09-01T04:19:26.499Z,9.43
2022-09-01T04:22:00.257Z,9.98
2022-09-01T04:24:34.848Z,6.75
2022-09-01T04:27:07.332Z,7.80
2022-09-01T04:29:37.117Z,7.95
2022-09-01T04:32:09.961Z,8.98
2022-09-01T04:34:41.808Z,8.82
2022-09-01T04:37:14.887Z,8.60
2022-09-01T04:39:51.243Z,7.97
2022-09-01T04:42:21.741Z,6.88
2022-09-01T04:44:51.461Z,7.47
2022-09-01T04:47:29.946Z,9.00
2022-09-01T04:50:14.340Z,6.55
2022-09-01T04:52:45.943Z,7.18
2022-09-01T04:55:30.328Z,7.95
2022-09-01T04:58:00.155Z,7.13
2022-09-01T05:00:32.727Z,9.77
2022-09-01T05:03:04.559Z,13.52
2022-09-01T05:05:54.116Z,12.18
2022-09-01T05:08:24.916Z,6.97
2022-09-01T05:10:57.045Z,7.80
2022-09-01T05:13:38.925Z,7.72
2022-09-01T05:18:45.111Z,8.20
2022-09-01T05:21:16.478Z,12.90
2022-09-01T05:26:16.962Z,9.10
2022-09-01T05:28:46.203Z,6.78
2022-09-01T05:31:19.658Z,7.73
2022-09-01T05:33:50.028Z,9.63
2022-09-01T05:36:21.563Z,8.90
2022-09-01T05:38:52.325Z,8.05
2022-09-01T05:41:23.988Z,7.30
2022-09-01T05:43:57.847Z,6.18
2022-09-01T05:46:30.172Z,11.27
2022-09-01T05:48:59.393Z,7.68
2022-09-01T05:51:46.435Z,10.88
2022-09-01T05:54:23.254Z,10.45
2022-09-01T05:56:53.617Z,8.10
2022-09-01T05:59:25.990Z,10.07
2022-09-01T06:02:00.835Z,8.55
2022-09-01T06:04:30.063Z,10.45
2022-09-01T06:07:08.502Z,9.40
2022-09-01T06:09:41.524Z,9.55
2022-09-01T06:12:17.894Z,10.20
2022-09-01T06:14:47.067Z,9.73
2022-09-01T06:17:22.151Z,9.23
2022-09-01T06:19:52.610Z,7.97
2022-09-01T06:22:20.784Z,7.80
2022-09-01T06:24:54.501Z,7.30
2022-09-01T06:27:24.710Z,7.38
2022-09-01T06:29:54.345Z,6.20
2022-09-01T06:32:25.981Z,9.95
2022-09-01T06:34:58.330Z,5.95
2022-09-01T06:37:28.893Z,9.13
2022-09-01T06:40:02.418Z,6.72
2022-09-01T06:42:35.390Z,5.70
2022-09-01T06:45:03.654Z,6.10
2022-09-01T06:47:33.811Z,8.15
2022-09-01T06:50:01.909Z,6.78
2022-09-01T06:53:32.165Z,5.88
2022-09-01T06:55:18.560Z,5.70
2022-09-01T06:58:13.922Z,6.28
2022-09-01T07:00:43.659Z,7.43
2022-09-01T07:03:14.966Z,3.37
2022-09-01T07:06:02.385Z,6.82
2022-09-01T07:14:28.304Z,3.33
2022-09-01T07:17:22.982Z,4.25
2022-09-01T07:22:37.233Z,5.30
2022-09-01T07:25:34.327Z,3.40
2022-09-01T07:28:25.391Z,3.13
2022-09-01T07:30:54.061Z,3.20
2022-09-01T07:36:29.656Z,5.90
2022-09-01T07:42:58.961Z,3.95
2022-09-01T07:45:26.633Z,4.25
2022-09-01T07:48:06.613Z,2.88
2022-09-01T07:53:36.774Z,4.85
2022-09-01T07:56:09.595Z,2.97
2022-09-01T07:58:43.160Z,2.35
2022-09-01T08:01:13.378Z,5.93
2022-09-01T08:03:42.580Z,5.32
2022-09-01T08:06:14.248Z,4.80
2022-09-01T08:08:43.551Z,5.10
2022-09-01T08:11:16.659Z,3.85
2022-09-01T08:13:44.822Z,3.97
2022-09-01T08:16:21.907Z,5.47
2022-09-01T08:18:51.274Z,6.07
2022-09-01T08:21:27.530Z,3.65
2022-09-01T08:24:09.623Z,3.85
2022-09-01T08:26:37.875Z,6.50
2022-09-01T08:29:06.958Z,5.13
2022-09-01T08:31:42.275Z,5.20
2022-09-01T08:34:12.872Z,4.70
2022-09-01T08:36:40.911Z,4.32
2022-09-01T08:39:10.118Z,4.53
2022-09-01T08:44:28.560Z,3.95
2022-09-01T08:47:02.687Z,4.88
2022-09-01T08:49:42.531Z,5.55
2022-09-01T08:52:20.013Z,5.07
2022-09-01T08:54:54.193Z,3.35
2022-09-01T08:57:24.771Z,5.15
2022-09-01T09:00:15.255Z,3.33
2022-09-01T09:03:00.192Z,6.00
2022-09-01T09:05:41.021Z,4.13
2022-09-01T09:08:33.609Z,6.78
2022-09-01T09:11:06.302Z,5.35
2022-09-01T09:13:48.227Z,4.88
2022-09-01T09:16:20.997Z,5.15
2022-09-01T09:18:55.835Z,5.65
2022-09-01T09:21:28.201Z,6.15
2022-09-01T09:24:05.131Z,3.45
2022-09-01T09:26:49.579Z,5.18
2022-09-01T09:29:18.119Z,2.92
2022-09-01T09:31:49.865Z,4.25
2022-09-01T09:34:33.170Z,3.10
2022-09-01T09:37:20.567Z,4.15
2022-09-01T09:40:08.497Z,4.22
2022-09-01T09:42:40.373Z,3.40
2022-09-01T09:47:47.770Z,4.25
2022-09-01T09:50:23.937Z,3.85
2022-09-01T09:52:55.725Z,5.03
2022-09-01T09:55:29.187Z,4.45
2022-09-01T09:58:00.560Z,3.65
2022-09-01T10:00:30.375Z,4.40
2022-09-01T10:03:01.375Z,4.35
2022-09-01T10:05:39.762Z,3.47
2022-09-01T10:08:09.884Z,1.90
2022-09-01T10:10:40.968Z,3.13
2022-09-01T10:13:14.827Z,3.17
2022-09-01T10:15:49.166Z,3.55
2022-09-01T10:18:29.011Z,3.33
2022-09-01T10:21:00.535Z,3.60
2022-09-01T10:23:31.380Z,3.15
2022-09-01T10:26:05.998Z,1.75
2022-09-01T10:28:49.575Z,2.15
2022-09-01T10:31:23.988Z,4.15
2022-09-01T10:33:58.625Z,2.10
2022-09-01T10:36:26.778Z,3.00
2022-09-01T10:39:04.654Z,2.25
2022-09-01T10:42:00.770Z,6.78
2022-09-01T10:44:34.362Z,3.53
2022-09-01T10:47:19.914Z,2.28
2022-09-01T10:50:07.908Z,3.88
2022-09-01T10:55:29.021Z,2.28
2022-09-01T11:05:18.793Z,2.30
2022-09-01T11:08:14.971Z,3.50
2022-09-01T11:10:52.534Z,7.30
2022-09-01T11:13:47.622Z,2.95
2022-09-01T11:16:50.081Z,3.50
2022-09-01T11:19:37.866Z,6.65
2022-09-01T11:22:29.502Z,2.45
2022-09-01T11:25:40.091Z,2.20
2022-09-01T11:28:47.022Z,4.65
2022-09-01T11:31:23.953Z,2.53
2022-09-01T11:34:10.784Z,1.90
2022-09-01T11:36:48.678Z,4.25
2022-09-01T11:39:30.592Z,4.75
2022-09-01T11:42:06.776Z,3.25
2022-09-01T11:44:42.529Z,6.15
2022-09-01T11:47:16.646Z,2.60
2022-09-01T11:49:54.864Z,2.10
2022-09-01T11:52:24.860Z,3.50
2022-09-01T11:54:52.754Z,2.13
2022-09-01T11:57:24.822Z,2.45
2022-09-01T11:59:53.829Z,2.08
2022-09-01T12:02:25.252Z,3.88
2022-09-01T12:04:56.307Z,2.80
2022-09-01T12:07:33.540Z,2.63
2022-09-01T12:10:01.647Z,2.83
2022-09-01T12:12:33.661Z,4.05
2022-09-01T12:15:06.781Z,2.42
2022-09-01T12:17:35.821Z,1.85
2022-09-01T12:20:38.636Z,3.53
2022-09-01T12:23:19.194Z,1.50
2022-09-01T12:25:48.281Z,1.85
2022-09-01T12:28:16.868Z,5.93
2022-09-01T12:30:45.319Z,3.92
2022-09-01T12:33:23.347Z,4.75
2022-09-01T12:35:58.829Z,5.50
2022-09-01T12:38:31.196Z,1.95
2022-09-01T12:41:00.057Z,3.65
2022-09-01T12:43:30.387Z,2.88
2022-09-01T12:48:30.783Z,3.78
2022-09-01T12:51:04.724Z,2.85
2022-09-01T12:53:36.721Z,1.80
2022-09-01T12:56:22.785Z,1.73
2022-09-01T12:58:54.294Z,3.20
2022-09-01T13:01:28.564Z,3.28
2022-09-01T13:04:14.242Z,4.80
2022-09-01T13:06:43.511Z,4.45
2022-09-01T13:09:11.477Z,3.45
2022-09-01T13:14:28.498Z,1.92
2022-09-01T13:16:56.272Z,2.50
2022-09-01T13:19:28.803Z,3.95
2022-09-01T13:22:00.009Z,2.45
2022-09-01T13:24:30.414Z,2.58
2022-09-01T13:29:47.437Z,1.35
2022-09-01T13:32:19.100Z,3.97
2022-09-01T13:34:50.364Z,1.33
2022-09-01T13:37:20.688Z,1.70
2022-09-01T13:39:48.715Z,1.80
2022-09-01T13:42:17.437Z,3.30
2022-09-01T13:44:48.415Z,3.70
2022-09-01T13:47:32.976Z,4.32
2022-09-01T13:50:11.331Z,3.38
2022-09-01T13:52:42.928Z,2.00
2022-09-01T13:55:12.901Z,3.55
2022-09-01T13:57:41.325Z,2.13
2022-09-01T14:00:13.293Z,3.53
2022-09-01T14:02:49.085Z,1.55
2022-09-01T14:05:17.567Z,4.00
2022-09-01T14:07:47.128Z,3.78
2022-09-01T14:10:15.485Z,1.90
2022-09-01T14:12:43.872Z,3.47
2022-09-01T14:15:15.969Z,2.47
2022-09-01T14:17:45.609Z,1.75
2022-09-01T14:20:16.057Z,4.07
2022-09-01T14:22:44.267Z,2.05
2022-09-01T14:25:13.724Z,2.30
2022-09-01T14:27:42.820Z,2.40
2022-09-01T14:30:16.672Z,2.10
2022-09-01T14:32:45.055Z,2.10
2022-09-01T14:35:13.358Z,1.77
2022-09-01T14:37:42.022Z,1.73
2022-09-01T14:40:16.852Z,4.47
2022-09-01T14:42:49.642Z,3.60
2022-09-01T14:45:18.788Z,1.85
2022-09-01T14:47:47.632Z,2.35
2022-09-01T14:50:19.887Z,1.10
2022-09-01T14:52:52.890Z,1.38
2022-09-01T14:55:22.209Z,2.67
2022-09-01T14:57:52.243Z,3.65
2022-09-01T15:00:20.820Z,3.08
2022-09-01T15:02:49.727Z,5.97
2022-09-01T15:05:18.112Z,6.63
2022-09-01T15:07:46.286Z,3.95
2022-09-01T15:10:24.573Z,3.60
2022-09-01T15:12:57.005Z,3.95
2022-09-01T15:15:26.311Z,1.77
2022-09-01T15:17:54.595Z,2.58
2022-09-01T15:20:40.634Z,4.30
2022-09-01T15:23:08.994Z,4.88
2022-09-01T15:25:36.897Z,2.58
2022-09-01T15:28:06.816Z,2.60
2022-09-01T15:30:35.970Z,9.65
2022-09-01T15:33:04.828Z,3.40
2022-09-01T15:35:33.598Z,4.15
2022-09-01T15:38:01.876Z,5.28
2022-09-01T15:40:30.285Z,5.30
2022-09-01T15:43:00.010Z,3.85
2022-09-01T15:45:30.082Z,3.03
2022-09-01T15:47:58.103Z,2.38
2022-09-01T15:50:27.945Z,1.90
2022-09-01T15:52:58.575Z,3.85
2022-09-01T15:55:28.865Z,1.90
2022-09-01T16:00:26.756Z,2.67
2022-09-01T16:02:56.648Z,2.80
2022-09-01T16:05:25.122Z,2.83
2022-09-01T16:10:23.223Z,4.13
2022-09-01T16:12:51.747Z,3.78
2022-09-01T16:15:21.866Z,2.63
2022-09-01T16:18:12.533Z,3.95
2022-09-01T16:20:50.951Z,2.55
2022-09-01T16:23:21.462Z,2.55
2022-09-01T16:25:50.249Z,2.08
2022-09-01T16:28:27.284Z,3.53
2022-09-01T16:31:01.012Z,2.85
2022-09-01T16:33:28.957Z,2.22
2022-09-01T16:36:17.171Z,2.85
2022-09-01T16:38:49.954Z,2.03
2022-09-01T16:41:41.058Z,3.30
2022-09-01T16:44:18.988Z,2.97
2022-09-01T16:46:55.507Z,3.58
2022-09-01T16:49:30.184Z,3.15
2022-09-01T16:52:05.479Z,4.20
2022-09-01T16:54:43.809Z,6.97
2022-09-01T16:57:21.672Z,2.08
2022-09-01T16:59:55.631Z,3.75
2022-09-01T17:02:49.951Z,2.92
2022-09-01T17:05:24.035Z,2.55
2022-09-01T17:08:06.840Z,2.63
2022-09-01T17:10:42.804Z,4.90
2022-09-01T17:13:20.132Z,2.80
2022-09-01T17:15:53.791Z,2.35
2022-09-01T17:18:30.815Z,1.70
2022-09-01T17:21:04.099Z,2.30
2022-09-01T17:23:40.681Z,2.97
2022-09-01T17:26:14.583Z,3.08
2022-09-01T17:28:51.866Z,3.40
2022-09-01T17:31:38.346Z,2.53
2022-09-01T17:34:21.043Z,4.25
2022-09-01T17:36:58.186Z,2.17
2022-09-01T17:39:42.136Z,2.75
2022-09-01T17:42:23.027Z,1.55
2022-09-01T17:44:56.100Z,6.05
2022-09-01T17:47:37.257Z,2.25
2022-09-01T17:50:15.231Z,5.57
2022-09-01T17:52:52.874Z,4.38
2022-09-01T17:55:37.130Z,3.97
2022-09-01T17:58:12.884Z,2.63
2022-09-01T18:00:52.674Z,5.07
2022-09-01T18:03:44.784Z,3.65
2022-09-01T18:06:18.273Z,2.80
2022-09-01T18:08:49.891Z,5.18
2022-09-01T18:11:27.601Z,3.15
2022-09-01T18:14:00.855Z,5.05
2022-09-01T18:16:31.111Z,3.10
2022-09-01T18:19:04.031Z,4.97
2022-09-01T18:21:36.649Z,4.28
2022-09-01T18:24:14.176Z,5.00
2022-09-01T18:26:47.732Z,5.47
2022-09-01T18:29:16.038Z,4.95
2022-09-01T18:32:03.862Z,4.35
2022-09-01T18:34:48.886Z,3.92
2022-09-01T18:37:25.452Z,6.18
2022-09-01T18:40:01.381Z,4.82
2022-09-01T18:42:37.202Z,4.43
2022-09-01T18:45:16.524Z,5.60
2022-09-01T18:47:55.951Z,3.63
2022-09-01T18:50:29.013Z,4.00
2022-09-01T18:53:05.648Z,2.70
2022-09-01T18:55:43.796Z,4.13
2022-09-01T18:58:25.884Z,5.85
2022-09-01T19:01:03.932Z,8.80
2022-09-01T19:03:34.930Z,7.35
2022-09-01T19:06:20.262Z,8.77
2022-09-01T19:09:04.197Z,4.53
2022-09-01T19:11:55.531Z,3.90
2022-09-01T19:14:31.711Z,4.30
2022-09-01T19:17:25.931Z,6.72
2022-09-01T19:19:58.910Z,6.65
2022-09-01T19:22:34.987Z,6.95
2022-09-01T19:25:21.353Z,3.60
2022-09-01T19:27:56.878Z,5.72
2022-09-01T19:30:26.299Z,5.82
2022-09-01T19:32:55.051Z,2.63
2022-09-01T19:35:23.235Z,4.05
2022-09-01T19:37:51.838Z,4.80
2022-09-01T19:40:26.345Z,10.02
2022-09-01T19:42:59.651Z,4.18
2022-09-01T19:45:39.023Z,6.13
2022-09-01T19:48:16.427Z,6.68
2022-09-01T19:50:51.022Z,3.70
2022-09-01T19:53:36.404Z,6.25
2022-09-01T19:56:10.230Z,4.95
2022-09-01T19:58:52.702Z,6.53
2022-09-01T20:01:34.290Z,8.45
2022-09-01T20:04:11.850Z,3.53
2022-09-01T20:06:43.888Z,6.10
2022-09-01T20:09:17.446Z,8.25
2022-09-01T20:11:52.677Z,7.35
2022-09-01T20:14:44.363Z,5.90
2022-09-01T20:17:21.204Z,5.10
2022-09-01T20:19:55.258Z,5.22
2022-09-01T20:22:31.293Z,5.95
2022-09-01T20:25:08.470Z,8.88
2022-09-01T20:27:46.150Z,9.23
2022-09-01T20:30:15.948Z,5.35
2022-09-01T20:32:53.214Z,5.43
2022-09-01T20:35:25.743Z,6.30
2022-09-01T20:38:03.837Z,8.98
2022-09-01T20:40:35.781Z,6.38
2022-09-01T20:43:18.561Z,5.38
2022-09-01T20:45:46.846Z,4.32
2022-09-01T20:48:18.880Z,10.00
2022-09-01T20:50:52.558Z,7.10
2022-09-01T20:53:43.824Z,10.63
2022-09-01T20:56:20.183Z,6.32
2022-09-01T20:58:54.814Z,6.10
2022-09-01T21:01:32.455Z,5.00
2022-09-01T21:04:09.316Z,3.92
2022-09-01T21:06:50.121Z,4.95
2022-09-01T21:09:28.864Z,4.00
2022-09-01T21:12:06.483Z,6.80
2022-09-01T21:14:46.858Z,5.57
2022-09-01T21:17:24.692Z,4.82
2022-09-01T21:20:05.890Z,4.78
2022-09-01T21:22:33.720Z,6.65
2022-09-01T21:25:01.762Z,4.18
2022-09-01T21:27:36.946Z,4.88
2022-09-01T21:30:07.608Z,7.18
2022-09-01T21:35:06.493Z,6.88
2022-09-01T21:37:34.362Z,5.20
2022-09-01T21:40:02.486Z,4.55
2022-09-01T21:42:33.700Z,7.97
2022-09-01T21:45:02.489Z,6.68
2022-09-01T21:47:31.874Z,5.03
2022-09-01T21:49:59.710Z,4.32
2022-09-01T21:52:29.177Z,4.50
2022-09-01T21:54:57.043Z,6.07
2022-09-01T21:57:25.059Z,4.03
2022-09-01T21:59:52.883Z,11.55
2022-09-01T22:02:21.205Z,4.75
2022-09-01T22:04:49.164Z,6.07
2022-09-01T22:07:21.151Z,4.43
2022-09-01T22:09:50.366Z,7.38
2022-09-01T22:12:18.285Z,4.82
2022-09-01T22:14:46.121Z,4.28
2022-09-01T22:17:13.939Z,8.40
2022-09-01T22:19:41.763Z,5.13
2022-09-01T22:22:12.911Z,4.18
2022-09-01T22:24:40.716Z,5.45
2022-09-01T22:27:10.072Z,4.63
2022-09-01T22:29:37.899Z,6.10
2022-09-01T22:32:06.005Z,5.93
2022-09-01T22:34:34.478Z,4.82
2022-09-01T22:37:02.725Z,6.07
2022-09-01T22:39:30.662Z,12.35
2022-09-01T22:41:58.492Z,6.30
2022-09-01T22:44:27.718Z,4.53
2022-09-01T22:46:55.501Z,8.23
2022-09-01T22:49:23.348Z,5.05
2022-09-01T22:51:51.423Z,10.35
2022-09-01T22:54:19.287Z,3.90
2022-09-01T22:56:49.783Z,7.18
2022-09-01T22:59:17.649Z,3.28
2022-09-01T23:01:48.601Z,3.28
2022-09-01T23:04:17.908Z,5.20
2022-09-01T23:06:49.475Z,5.03
2022-09-01T23:09:18.595Z,3.72
2022-09-01T23:11:47.712Z,4.95
2022-09-01T23:14:15.708Z,4.22
2022-09-01T23:16:43.595Z,5.55
2022-09-01T23:19:12.838Z,4.22
2022-09-01T23:21:40.718Z,5.00
2022-09-01T23:24:08.837Z,4.15
2022-09-01T23:26:36.930Z,3.20
2022-09-01T23:29:05.106Z,6.43
2022-09-01T23:31:35.896Z,5.18
2022-09-01T23:34:04.816Z,5.05
2022-09-01T23:36:35.412Z,3.33
2022-09-01T23:41:33.460Z,6.53
2022-09-01T23:44:03.809Z,4.20
2022-09-01T23:46:33.420Z,4.70
2022-09-01T23:49:02.430Z,5.27
2022-09-01T23:51:30.362Z,8.57
2022-09-01T23:53:59.569Z,4.07
2022-09-01T23:56:30.170Z,5.90
